Time;durP1;ratioP1;P1;durP2;ratioP2;P2;SDS_P1;SDS_P2;PMS_P1;PMS_P2;Temp;Humidity;BMP_temperature;BMP_pressure;BME280_temperature;BME280_humidity;BME280_pressure;Samples;Min_cycle;Max_cycle;Signal;HPM_P1;HPM_P2
2022/08/16 00:02:13;;;;;;;14.48;12.80;;;22.80;99.90;;;;;;5008379;28;20446;-59
2022/08/16 00:04:39;;;;;;;15.30;13.18;;;22.80;99.90;;;;;;5012470;28;20120;-59
2022/08/16 00:07:05;;;;;;;15.70;13.38;;;22.70;99.90;;;;;;5011731;28;20492;-60
2022/08/16 00:09:31;;;;;;;16.33;14.30;;;22.70;99.90;;;;;;5012002;28;20124;-60
2022/08/16 00:11:57;;;;;;;15.45;13.90;;;22.70;99.90;;;;;;5011685;28;20045;-60
2022/08/16 00:14:26;;;;;;;17.30;14.30;;;22.70;99.90;;;;;;5010462;28;20418;-60
2022/08/16 00:16:52;;;;;;;15.77;13.77;;;22.70;99.90;;;;;;5008642;28;20050;-60
2022/08/16 00:19:22;;;;;;;15.57;13.93;;;22.70;99.90;;;;;;5013541;28;20061;-60
2022/08/16 00:21:49;;;;;;;15.48;13.18;;;22.70;99.90;;;;;;5011677;28;20108;-60
2022/08/16 00:24:15;;;;;;;17.13;14.25;;;22.70;99.90;;;;;;5014213;28;20052;-60
2022/08/16 00:26:43;;;;;;;17.25;14.55;;;22.70;99.90;;;;;;5012079;28;20049;-60
2022/08/16 00:29:09;;;;;;;16.08;14.45;;;22.70;99.90;;;;;;5010983;28;20842;-61
2022/08/16 00:31:35;;;;;;;17.30;14.45;;;22.70;99.90;;;;;;5011931;28;20085;-61
2022/08/16 00:34:01;;;;;;;18.85;14.25;;;22.70;99.90;;;;;;5010178;28;20046;-61
2022/08/16 00:36:27;;;;;;;17.73;15.20;;;22.70;99.90;;;;;;5011550;28;20056;-61
2022/08/16 00:38:53;;;;;;;15.82;13.98;;;22.60;99.90;;;;;;5011423;28;20037;-60
2022/08/16 00:41:20;;;;;;;18.17;15.07;;;22.60;99.90;;;;;;5011781;28;20168;-60
2022/08/16 00:43:46;;;;;;;15.73;13.45;;;22.60;99.90;;;;;;5010565;28;20111;-60
2022/08/16 00:46:28;;;;;;;16.67;14.82;;;22.60;99.90;;;;;;5011604;28;20048;-60
2022/08/16 00:48:54;;;;;;;15.68;14.18;;;22.60;99.90;;;;;;5010073;28;20046;-60
2022/08/16 00:51:24;;;;;;;15.95;14.18;;;22.60;99.90;;;;;;5010636;28;20038;-60
2022/08/16 00:53:52;;;;;;;16.88;14.05;;;22.50;99.90;;;;;;5010942;28;20046;-60
2022/08/16 00:56:23;;;;;;;17.20;14.25;;;22.60;99.90;;;;;;4994033;28;20046;-60
2022/08/16 00:58:49;;;;;;;17.38;14.63;;;22.60;99.90;;;;;;5011152;28;20046;-60
2022/08/16 01:01:17;;;;;;;16.15;14.55;;;22.60;99.90;;;;;;5011397;28;20148;-60
2022/08/16 01:03:48;;;;;;;16.30;14.70;;;22.50;99.90;;;;;;5010887;28;20486;-61
2022/08/16 01:06:17;;;;;;;16.90;15.20;;;22.50;99.90;;;;;;5009278;28;20046;-60
2022/08/16 01:08:46;;;;;;;19.05;16.50;;;22.50;99.90;;;;;;5010884;28;20038;-60
2022/08/16 01:11:12;;;;;;;19.63;17.52;;;22.50;99.90;;;;;;5007357;28;20464;-60
2022/08/16 01:13:39;;;;;;;18.60;16.42;;;22.40;99.90;;;;;;5003663;28;20099;-60
2022/08/16 01:16:19;;;;;;;18.65;16.73;;;22.40;99.90;;;;;;5010666;28;20042;-60
2022/08/16 01:18:58;;;;;;;18.30;16.10;;;22.40;99.90;;;;;;4986833;28;20037;-60
2022/08/16 01:21:56;;;;;;;19.05;17.25;;;22.40;99.90;;;;;;5011023;28;20053;-60
2022/08/16 01:24:38;;;;;;;18.70;16.63;;;22.40;99.90;;;;;;5008128;28;20144;-60
2022/08/16 01:27:27;;;;;;;18.92;17.00;;;22.40;99.90;;;;;;5010594;28;20049;-60
2022/08/16 01:30:04;;;;;;;19.23;17.33;;;22.40;99.90;;;;;;5014219;28;20068;-62
2022/08/16 01:32:32;;;;;;;18.98;17.15;;;22.40;99.90;;;;;;5012793;28;20053;-61
2022/08/16 01:34:58;;;;;;;21.58;16.92;;;22.30;99.90;;;;;;5016162;28;20132;-60
2022/08/16 01:37:23;;;;;;;25.50;18.35;;;22.30;99.90;;;;;;5013006;28;20477;-61
2022/08/16 01:39:49;;;;;;;22.33;18.27;;;22.30;99.90;;;;;;5019039;28;20120;-61
2022/08/16 01:42:15;;;;;;;23.58;18.55;;;22.30;99.90;;;;;;5015082;28;20076;-60
2022/08/16 01:44:41;;;;;;;20.48;18.40;;;22.30;99.90;;;;;;5016794;28;20054;-59
2022/08/16 01:47:07;;;;;;;22.13;19.73;;;22.30;99.90;;;;;;5017592;28;20380;-60
2022/08/16 01:49:41;;;;;;;23.73;21.02;;;22.20;99.90;;;;;;5014884;28;20207;-61
2022/08/16 01:52:12;;;;;;;24.67;22.13;;;22.20;99.90;;;;;;5005517;28;20141;-60
2022/08/16 01:54:38;;;;;;;27.20;24.27;;;22.20;99.90;;;;;;5014021;28;20350;-60
2022/08/16 01:57:04;;;;;;;26.80;21.77;;;22.10;99.90;;;;;;5015297;28;20124;-60
2022/08/16 01:59:32;;;;;;;23.25;20.85;;;22.10;99.90;;;;;;5012993;28;20065;-60
2022/08/16 02:01:59;;;;;;;24.08;20.83;;;22.10;99.90;;;;;;5017976;28;20049;-61
2022/08/16 02:04:26;;;;;;;23.13;20.02;;;22.10;99.90;;;;;;5016821;28;20082;-60
2022/08/16 02:06:52;;;;;;;23.35;20.25;;;22.10;99.90;;;;;;5013784;28;20060;-60
2022/08/16 02:09:20;;;;;;;22.75;20.38;;;22.10;99.90;;;;;;5019524;28;20210;-60
2022/08/16 02:11:52;;;;;;;20.50;18.15;;;22.00;99.90;;;;;;5012320;28;20045;-60
2022/08/16 02:14:18;;;;;;;20.02;17.98;;;22.00;99.90;;;;;;5017221;28;20120;-60
2022/08/16 02:16:44;;;;;;;21.33;18.77;;;22.00;99.90;;;;;;5010980;28;20045;-60
2022/08/16 02:19:11;;;;;;;19.52;17.50;;;22.00;99.90;;;;;;5013787;28;20038;-61
2022/08/16 02:21:37;;;;;;;21.70;19.40;;;21.90;99.90;;;;;;5016871;28;20093;-61
2022/08/16 02:24:03;;;;;;;19.88;17.77;;;21.90;99.90;;;;;;5005565;28;20073;-59
2022/08/16 02:26:29;;;;;;;20.35;18.17;;;21.90;99.90;;;;;;5008847;28;20503;-59
2022/08/16 02:28:55;;;;;;;20.67;18.55;;;21.80;99.90;;;;;;5009822;28;20068;-60
2022/08/16 02:31:21;;;;;;;19.90;17.80;;;21.80;99.90;;;;;;5011599;28;20523;-60
2022/08/16 02:33:47;;;;;;;21.08;18.88;;;21.80;99.90;;;;;;5017562;28;20061;-59
2022/08/16 02:36:14;;;;;;;21.15;18.92;;;21.80;99.90;;;;;;5009220;28;20046;-60
2022/08/16 02:38:41;;;;;;;27.85;19.90;;;21.80;99.90;;;;;;5018631;28;20494;-59
2022/08/16 02:41:08;;;;;;;21.63;19.27;;;21.80;99.90;;;;;;5010023;28;20072;-59
2022/08/16 02:43:35;;;;;;;21.92;19.45;;;21.80;99.90;;;;;;5017146;28;20443;-60
2022/08/16 02:46:02;;;;;;;23.52;19.42;;;21.80;99.90;;;;;;5010658;28;20050;-59
2022/08/16 02:48:29;;;;;;;20.95;18.75;;;21.80;99.90;;;;;;5011244;28;20525;-60
2022/08/16 02:51:00;;;;;;;22.50;17.13;;;21.80;99.90;;;;;;5017030;28;20061;-60
2022/08/16 02:53:26;;;;;;;21.98;17.65;;;21.80;99.90;;;;;;5011740;28;20096;-60
2022/08/16 02:55:52;;;;;;;21.10;18.95;;;21.80;99.90;;;;;;5018487;28;20081;-60
2022/08/16 02:58:19;;;;;;;20.55;18.33;;;21.90;99.90;;;;;;5010067;28;20048;-60
2022/08/16 03:00:45;;;;;;;19.10;15.63;;;21.90;99.90;;;;;;5009416;28;20469;-59
2022/08/16 03:03:11;;;;;;;17.45;15.65;;;21.90;99.90;;;;;;5009761;28;20042;-59
2022/08/16 03:05:37;;;;;;;19.10;16.08;;;21.90;99.90;;;;;;5017284;28;20125;-60
2022/08/16 03:08:03;;;;;;;18.25;15.77;;;21.90;99.90;;;;;;4992879;28;20042;-60
2022/08/16 03:10:28;;;;;;;17.38;15.55;;;21.90;99.90;;;;;;5011533;28;20073;-60
2022/08/16 03:12:55;;;;;;;16.98;15.23;;;21.90;99.90;;;;;;5012914;28;20050;-61
2022/08/16 03:15:21;;;;;;;16.33;14.52;;;21.90;99.90;;;;;;5011170;28;20046;-61
2022/08/16 03:17:46;;;;;;;18.83;15.48;;;21.90;99.90;;;;;;5013272;28;20408;-61
2022/08/16 03:20:15;;;;;;;18.13;14.85;;;21.90;99.90;;;;;;5011957;28;20065;-60
2022/08/16 03:22:41;;;;;;;18.20;15.73;;;21.90;99.90;;;;;;5019981;28;20096;-61
2022/08/16 03:25:10;;;;;;;17.20;15.02;;;21.90;99.90;;;;;;5008107;28;20065;-60
2022/08/16 03:27:38;;;;;;;16.45;14.73;;;21.90;99.90;;;;;;5002542;28;20038;-60
2022/08/16 03:30:14;;;;;;;16.63;14.93;;;21.90;99.90;;;;;;5003322;28;20085;-61
2022/08/16 03:32:40;;;;;;;18.15;15.80;;;21.90;99.90;;;;;;5000209;28;20042;-60
2022/08/16 03:35:06;;;;;;;16.77;14.38;;;21.90;99.90;;;;;;4999439;28;20047;-61
2022/08/16 03:37:33;;;;;;;16.90;15.07;;;21.80;99.90;;;;;;5012255;28;20399;-60
2022/08/16 03:39:59;;;;;;;20.40;14.30;;;21.80;99.90;;;;;;5012933;28;20104;-60
2022/08/16 03:42:25;;;;;;;18.05;15.13;;;21.80;99.90;;;;;;5017846;28;20498;-61
2022/08/16 03:44:51;;;;;;;16.63;14.82;;;21.70;99.90;;;;;;5021742;28;20377;-60
2022/08/16 03:47:17;;;;;;;18.02;15.63;;;21.70;99.90;;;;;;5013537;28;20052;-60
2022/08/16 03:49:43;;;;;;;17.60;15.50;;;21.70;99.90;;;;;;5017200;28;20072;-60
2022/08/16 03:52:09;;;;;;;17.92;16.02;;;21.60;99.90;;;;;;5012826;28;20092;-60
2022/08/16 03:54:35;;;;;;;17.60;15.82;;;21.60;99.90;;;;;;5016985;28;20068;-60
2022/08/16 03:57:02;;;;;;;18.25;16.38;;;21.60;99.90;;;;;;5023170;28;20041;-61
2022/08/16 03:59:28;;;;;;;17.95;16.05;;;21.50;99.90;;;;;;5014479;28;20049;-60
2022/08/16 04:01:54;;;;;;;18.38;16.50;;;21.50;99.90;;;;;;5022939;28;20045;-60
2022/08/16 04:04:19;;;;;;;17.88;15.80;;;21.40;99.90;;;;;;5011651;28;20053;-61
2022/08/16 04:06:45;;;;;;;18.38;16.45;;;21.40;99.90;;;;;;5020159;28;20042;-61
2022/08/16 04:09:11;;;;;;;17.90;16.05;;;21.30;99.90;;;;;;5014037;28;20038;-60
2022/08/16 04:11:37;;;;;;;20.48;17.23;;;21.30;99.90;;;;;;5015850;28;20046;-61
2022/08/16 04:14:03;;;;;;;22.05;19.70;;;21.20;99.90;;;;;;5011308;28;20128;-60
2022/08/16 04:16:31;;;;;;;23.13;19.95;;;21.10;99.90;;;;;;5006330;28;20038;-61
2022/08/16 04:18:57;;;;;;;22.15;19.98;;;21.10;99.90;;;;;;5010933;28;20061;-60
2022/08/16 04:21:23;;;;;;;22.52;20.13;;;21.00;99.90;;;;;;5011522;28;20353;-60
2022/08/16 04:23:48;;;;;;;22.25;18.35;;;21.00;99.90;;;;;;5012188;28;20096;-60
2022/08/16 04:26:14;;;;;;;20.90;18.70;;;21.00;99.90;;;;;;5011403;28;20057;-60
2022/08/16 04:28:40;;;;;;;21.83;19.25;;;21.00;99.90;;;;;;5011734;28;20104;-60
2022/08/16 04:31:06;;;;;;;21.65;18.52;;;20.90;99.90;;;;;;5010621;28;20061;-61
2022/08/16 04:33:31;;;;;;;20.45;18.33;;;20.90;99.90;;;;;;5003961;28;20479;-60
2022/08/16 04:35:57;;;;;;;22.88;18.60;;;20.90;99.90;;;;;;5011678;28;20038;-58
2022/08/16 04:38:24;;;;;;;19.63;17.52;;;20.90;99.90;;;;;;5007290;28;20053;-59
2022/08/16 04:40:50;;;;;;;21.48;17.48;;;20.90;99.90;;;;;;5011814;28;20073;-59
2022/08/16 04:43:17;;;;;;;18.77;16.77;;;20.90;99.90;;;;;;5010603;28;20424;-60
2022/08/16 04:45:43;;;;;;;18.95;17.05;;;20.90;99.90;;;;;;5010958;28;20050;-60
2022/08/16 04:48:09;;;;;;;19.92;17.38;;;20.90;99.90;;;;;;5011469;28;20140;-61
2022/08/16 04:50:35;;;;;;;18.77;16.88;;;21.00;99.90;;;;;;5010751;28;20534;-60
2022/08/16 04:53:01;;;;;;;18.05;16.25;;;20.90;99.90;;;;;;5009129;28;20077;-60
2022/08/16 04:55:30;;;;;;;21.25;17.23;;;20.90;99.90;;;;;;5010937;28;20080;-60
2022/08/16 04:57:56;;;;;;;18.98;16.88;;;21.00;99.90;;;;;;5011282;28;20038;-62
2022/08/16 05:00:32;;;;;;;19.05;16.58;;;21.00;99.90;;;;;;5010945;28;20479;-62
2022/08/16 05:03:00;;;;;;;18.30;16.23;;;21.00;99.90;;;;;;4993941;28;20129;-60
2022/08/16 05:05:26;;;;;;;18.55;16.67;;;21.00;99.90;;;;;;5010008;28;20057;-59
2022/08/16 05:07:51;;;;;;;17.65;15.90;;;21.10;99.90;;;;;;5011247;28;20129;-60
2022/08/16 05:10:17;;;;;;;17.70;16.00;;;21.10;99.90;;;;;;5010051;28;20491;-60
2022/08/16 05:12:43;;;;;;;18.38;15.95;;;21.10;99.90;;;;;;5011439;28;20034;-60
2022/08/16 05:15:09;;;;;;;17.20;15.10;;;21.20;99.90;;;;;;5010896;28;20088;-60
2022/08/16 05:17:35;;;;;;;17.23;15.50;;;21.20;99.90;;;;;;5009209;28;20053;-60
2022/08/16 05:20:02;;;;;;;21.13;16.88;;;21.20;99.90;;;;;;5005393;28;20037;-60
2022/08/16 05:22:28;;;;;;;19.05;15.52;;;21.30;99.90;;;;;;5011599;28;20056;-60
2022/08/16 05:24:54;;;;;;;16.88;15.27;;;21.30;99.90;;;;;;4999673;28;20046;-60
2022/08/16 05:27:20;;;;;;;17.60;15.52;;;21.40;99.90;;;;;;5007775;28;20052;-60
2022/08/16 05:29:46;;;;;;;16.85;14.63;;;21.50;99.90;;;;;;5008499;28;20054;-60
2022/08/16 05:32:12;;;;;;;18.40;14.48;;;21.50;99.90;;;;;;5011065;28;20085;-60
2022/08/16 05:34:37;;;;;;;17.30;14.73;;;21.60;99.90;;;;;;5010115;28;20049;-61
2022/08/16 05:37:03;;;;;;;19.60;14.95;;;21.70;99.90;;;;;;5011199;28;20045;-61
2022/08/16 05:39:28;;;;;;;16.75;14.00;;;21.80;99.90;;;;;;5009042;28;20057;-61
2022/08/16 05:41:54;;;;;;;15.25;13.65;;;22.20;99.90;;;;;;5008552;28;20487;-61
2022/08/16 05:44:22;;;;;;;14.82;12.35;;;22.80;99.90;;;;;;5008418;28;20124;-61
2022/08/16 05:46:49;;;;;;;14.13;12.23;;;23.40;99.90;;;;;;5008553;28;20731;-61
2022/08/16 05:49:17;;;;;;;15.68;12.65;;;24.00;99.90;;;;;;5009843;28;20061;-61
2022/08/16 05:51:45;;;;;;;15.43;13.07;;;24.60;99.90;;;;;;5010210;28;20101;-61
2022/08/16 05:54:13;;;;;;;15.10;12.10;;;25.10;99.90;;;;;;5010363;28;20061;-61
2022/08/16 05:56:40;;;;;;;13.52;12.13;;;25.70;99.90;;;;;;4998304;28;20739;-61
2022/08/16 05:59:07;;;;;;;15.40;12.57;;;26.20;99.90;;;;;;5005121;28;20124;-61
2022/08/16 06:01:34;;;;;;;18.75;11.73;;;26.80;99.90;;;;;;5009058;28;20386;-61
2022/08/16 06:03:59;;;;;;;14.18;11.48;;;27.40;99.90;;;;;;5010444;28;20034;-61
2022/08/16 06:06:25;;;;;;;13.25;11.77;;;27.90;98.70;;;;;;5010259;28;20067;-61
2022/08/16 06:08:51;;;;;;;12.50;10.88;;;28.30;97.50;;;;;;5008338;28;20318;-62
2022/08/16 06:11:17;;;;;;;13.15;10.10;;;28.80;97.00;;;;;;4993049;28;20054;-61
2022/08/16 06:13:44;;;;;;;14.90;11.13;;;29.20;96.60;;;;;;5008809;28;20052;-59
2022/08/16 06:16:10;;;;;;;11.98;10.68;;;29.50;95.10;;;;;;5009136;28;20049;-61
2022/08/16 06:18:35;;;;;;;11.13;9.98;;;29.80;95.90;;;;;;5004983;28;20064;-62
2022/08/16 06:21:01;;;;;;;10.70;9.57;;;30.20;93.80;;;;;;5008155;28;20491;-61
2022/08/16 06:23:27;;;;;;;11.48;10.15;;;30.40;94.40;;;;;;5010412;28;20111;-61
2022/08/16 06:25:52;;;;;;;10.82;9.73;;;30.60;94.30;;;;;;5008756;28;20132;-62
2022/08/16 06:28:19;;;;;;;10.85;9.63;;;30.70;92.60;;;;;;5010449;28;20459;-62
2022/08/16 06:30:45;;;;;;;11.95;9.43;;;30.90;93.40;;;;;;5009831;28;20085;-62
2022/08/16 06:33:14;;;;;;;10.73;9.13;;;30.80;91.30;;;;;;5010457;28;20845;-62
2022/08/16 06:35:39;;;;;;;11.70;9.80;;;30.80;92.60;;;;;;5017120;28;20495;-62
2022/08/16 06:38:05;;;;;;;11.32;10.10;;;30.80;92.20;;;;;;5016915;28;20125;-61
2022/08/16 06:40:32;;;;;;;11.27;10.00;;;30.70;91.00;;;;;;5017915;28;20464;-62
2022/08/16 06:42:58;;;;;;;12.00;10.20;;;30.70;91.50;;;;;;5011137;28;20399;-62
2022/08/16 06:45:24;;;;;;;10.70;9.60;;;30.60;91.20;;;;;;5010313;28;20061;-62
2022/08/16 06:47:50;;;;;;;11.13;9.15;;;30.50;91.30;;;;;;5007064;28;20041;-62
2022/08/16 06:50:17;;;;;;;11.07;9.93;;;30.50;91.30;;;;;;5008479;28;20046;-61
2022/08/16 06:52:44;;;;;;;11.75;10.15;;;30.70;91.30;;;;;;5009792;28;20120;-61
2022/08/16 06:55:13;;;;;;;12.55;10.30;;;30.90;90.90;;;;;;5010038;28;20050;-61
2022/08/16 06:57:39;;;;;;;12.98;10.65;;;30.80;90.90;;;;;;5006209;28;20049;-62
2022/08/16 07:00:11;;;;;;;12.20;10.90;;;30.80;90.50;;;;;;5003137;28;20116;-61
2022/08/16 07:02:38;;;;;;;10.73;9.52;;;30.80;90.50;;;;;;5005853;28;20053;-61
2022/08/16 07:05:05;;;;;;;11.20;9.95;;;30.90;90.80;;;;;;5013863;28;20046;-61
2022/08/16 07:07:32;;;;;;;12.23;10.13;;;31.10;90.80;;;;;;5011106;28;20089;-61
2022/08/16 07:09:58;;;;;;;12.38;10.55;;;31.20;90.40;;;;;;5012104;28;20038;-62
2022/08/16 07:12:23;;;;;;;11.73;10.50;;;31.40;90.40;;;;;;5008511;28;20069;-62
2022/08/16 07:14:49;;;;;;;11.60;10.40;;;31.60;90.30;;;;;;5011090;28;20045;-62
2022/08/16 07:17:18;;;;;;;13.13;10.07;;;31.60;90.50;;;;;;5001794;28;20124;-62
2022/08/16 07:19:43;;;;;;;12.82;9.60;;;31.70;89.80;;;;;;5013323;28;20185;-62
2022/08/16 07:22:09;;;;;;;12.93;10.80;;;31.60;90.10;;;;;;5016438;28;20137;-61
2022/08/16 07:24:35;;;;;;;14.15;10.45;;;31.70;90.00;;;;;;5014027;28;20061;-61
2022/08/16 07:27:02;;;;;;;12.10;10.68;;;31.50;89.00;;;;;;5011761;28;20509;-63
2022/08/16 07:29:28;;;;;;;11.68;9.90;;;31.40;89.50;;;;;;5011973;28;20033;-61
2022/08/16 07:31:55;;;;;;;11.43;9.80;;;31.00;90.20;;;;;;5010173;28;20045;-61
2022/08/16 07:34:21;;;;;;;12.70;9.30;;;30.90;90.20;;;;;;5011718;28;20046;-62
2022/08/16 07:36:47;;;;;;;10.50;9.45;;;30.50;90.00;;;;;;5012673;28;20041;-62
2022/08/16 07:39:14;;;;;;;14.45;9.63;;;30.70;90.20;;;;;;5013011;28;20045;-62
2022/08/16 07:41:40;;;;;;;11.20;10.00;;;30.70;90.10;;;;;;5012579;28;20053;-62
2022/08/16 07:44:06;;;;;;;10.93;9.82;;;30.80;90.00;;;;;;5010982;28;20049;-62
2022/08/16 07:46:31;;;;;;;11.18;9.90;;;31.20;90.10;;;;;;5011910;28;20100;-62
2022/08/16 07:48:57;;;;;;;12.05;9.20;;;31.30;89.40;;;;;;5012153;28;20407;-63
2022/08/16 07:51:23;;;;;;;10.52;8.82;;;31.60;88.60;;;;;;5011519;28;20076;-62
2022/08/16 07:53:50;;;;;;;11.48;9.70;;;32.00;89.20;;;;;;5012106;28;20064;-65
2022/08/16 07:56:19;;;;;;;15.82;9.98;;;32.20;87.00;;;;;;5011714;28;20049;-62
2022/08/16 07:58:45;;;;;;;10.77;9.68;;;32.30;86.20;;;;;;5011382;28;20104;-60
2022/08/16 08:01:12;;;;;;;10.10;8.88;;;32.50;87.00;;;;;;5010878;28;20073;-61
2022/08/16 08:03:40;;;;;;;9.70;8.68;;;32.90;85.20;;;;;;5012489;28;20510;-61
2022/08/16 08:06:06;;;;;;;14.30;9.45;;;33.30;85.50;;;;;;5007420;28;20115;-61
2022/08/16 08:08:31;;;;;;;11.00;9.10;;;33.50;85.00;;;;;;5012385;28;20050;-62
2022/08/16 08:10:58;;;;;;;9.00;7.82;;;33.90;85.00;;;;;;5000754;28;20038;-61
2022/08/16 08:13:24;;;;;;;12.05;8.65;;;34.50;85.20;;;;;;5000156;28;20053;-62
2022/08/16 08:15:50;;;;;;;10.23;8.25;;;34.90;83.30;;;;;;5002076;28;20047;-65
2022/08/16 08:18:16;;;;;;;9.90;7.85;;;35.20;82.80;;;;;;5006502;28;20137;-61
2022/08/16 08:20:45;;;;;;;10.82;8.98;;;35.50;82.00;;;;;;4996675;28;20436;-61
2022/08/16 08:23:13;;;;;;;15.50;9.35;;;35.70;80.90;;;;;;4996889;28;20046;-60
2022/08/16 08:25:43;;;;;;;12.43;9.90;;;35.80;80.20;;;;;;4992612;28;20104;-61
2022/08/16 08:28:09;;;;;;;10.93;8.45;;;35.70;79.60;;;;;;5013534;28;20081;-61
2022/08/16 08:30:35;;;;;;;11.43;9.18;;;35.60;79.70;;;;;;5020443;28;20093;-60
2022/08/16 08:33:01;;;;;;;10.13;8.85;;;35.60;80.50;;;;;;5028835;28;20047;-60
2022/08/16 08:35:28;;;;;;;10.38;8.55;;;35.80;80.10;;;;;;5013285;28;20054;-61
2022/08/16 08:37:54;;;;;;;10.27;9.10;;;35.90;80.00;;;;;;5010860;28;20042;-62
2022/08/16 08:40:21;;;;;;;11.30;8.27;;;36.10;80.60;;;;;;5010319;28;20046;-61
2022/08/16 08:42:47;;;;;;;10.23;7.85;;;36.30;79.60;;;;;;5010370;28;20050;-60
2022/08/16 08:45:14;;;;;;;9.23;8.32;;;36.40;80.30;;;;;;4977751;28;20446;-62
2022/08/16 08:47:43;;;;;;;8.57;7.68;;;36.50;79.80;;;;;;5002160;28;20050;-61
2022/08/16 08:50:09;;;;;;;9.93;7.97;;;36.70;79.50;;;;;;5000449;28;20093;-62
2022/08/16 08:52:35;;;;;;;9.88;7.10;;;36.50;79.10;;;;;;5008039;28;20178;-62
2022/08/16 08:55:04;;;;;;;9.98;7.13;;;36.30;79.10;;;;;;5003719;28;20141;-61
2022/08/16 08:57:30;;;;;;;9.93;6.45;;;35.90;78.10;;;;;;5004898;28;20046;-61
2022/08/16 08:59:56;;;;;;;7.60;5.97;;;35.50;78.90;;;;;;5010101;28;20053;-64
2022/08/16 09:02:22;;;;;;;7.93;6.28;;;35.70;79.00;;;;;;5009634;28;20153;-62
2022/08/16 09:04:48;;;;;;;8.77;5.88;;;36.00;77.20;;;;;;5010381;28;20041;-61
2022/08/16 09:07:14;;;;;;;9.75;6.88;;;36.10;77.80;;;;;;5009055;28;20049;-61
2022/08/16 09:09:40;;;;;;;8.23;6.32;;;36.00;76.70;;;;;;5010863;28;20045;-62
2022/08/16 09:12:07;;;;;;;9.32;5.68;;;36.10;77.70;;;;;;4992350;28;20063;-61
2022/08/16 09:14:34;;;;;;;8.80;5.68;;;36.10;77.00;;;;;;5011152;28;20045;-61
2022/08/16 09:17:00;;;;;;;7.38;5.53;;;36.30;76.60;;;;;;5009647;28;20518;-64
2022/08/16 09:19:26;;;;;;;7.18;4.90;;;36.50;75.80;;;;;;5004375;28;20046;-61
2022/08/16 09:21:51;;;;;;;9.95;4.65;;;36.40;75.50;;;;;;5007505;28;20053;-63
2022/08/16 09:24:18;;;;;;;6.50;4.20;;;36.40;75.10;;;;;;5008636;28;20049;-63
2022/08/16 09:26:43;;;;;;;6.68;4.30;;;36.40;75.30;;;;;;5010587;28;20089;-61
2022/08/16 09:29:09;;;;;;;6.97;4.00;;;36.20;75.20;;;;;;5008286;28;20131;-61
2022/08/16 09:31:36;;;;;;;10.73;3.90;;;36.30;75.30;;;;;;5010202;28;20057;-62
2022/08/16 09:34:02;;;;;;;6.13;4.43;;;36.20;73.80;;;;;;5009974;28;20125;-64
2022/08/16 09:36:28;;;;;;;8.90;4.68;;;36.30;74.40;;;;;;5010294;28;20041;-64
2022/08/16 09:38:55;;;;;;;5.85;4.43;;;36.20;74.00;;;;;;4993260;28;20042;-64
2022/08/16 09:41:21;;;;;;;10.43;4.95;;;36.10;74.00;;;;;;5007896;28;20132;-62
2022/08/16 09:43:47;;;;;;;4.72;4.10;;;35.90;73.60;;;;;;5008107;28;20090;-63
2022/08/16 09:46:12;;;;;;;6.40;4.38;;;35.20;73.90;;;;;;5006605;28;20096;-61
2022/08/16 09:48:40;;;;;;;5.95;4.28;;;34.70;74.40;;;;;;5004153;28;20146;-60
2022/08/16 09:51:10;;;;;;;9.70;4.60;;;34.30;75.50;;;;;;5009177;28;20538;-60
2022/08/16 09:53:37;;;;;;;9.68;5.13;;;34.20;75.80;;;;;;5010563;28;20038;-60
2022/08/16 09:56:08;;;;;;;8.40;4.60;;;34.10;76.00;;;;;;5004769;28;20038;-60
2022/08/16 09:58:35;;;;;;;7.57;5.07;;;34.00;76.70;;;;;;5002418;28;20050;-60
2022/08/16 10:01:01;;;;;;;9.65;6.30;;;34.00;77.20;;;;;;5006796;28;20045;-62
2022/08/16 10:03:26;;;;;;;8.18;5.88;;;34.00;77.00;;;;;;4985588;28;20073;-62
2022/08/16 10:05:52;;;;;;;7.82;5.13;;;33.80;76.80;;;;;;5000899;28;20122;-63
2022/08/16 10:08:17;;;;;;;5.72;5.15;;;33.60;77.70;;;;;;4994582;28;20042;-62
2022/08/16 10:13:10;;;;;;;6.13;5.47;;;33.40;76.60;;;;;;4996364;28;20046;-62
2022/08/16 10:13:32;;;;;;;8.43;5.72;;;33.30;76.50;;;;;;5006733;28;20062;-62
2022/08/16 10:15:58;;;;;;;6.97;5.90;;;33.10;76.90;;;;;;5006502;28;20046;-62
2022/08/16 10:18:26;;;;;;;5.60;5.00;;;32.90;77.10;;;;;;4993652;28;20042;-64
2022/08/16 10:20:54;;;;;;;9.07;5.70;;;32.90;77.60;;;;;;4996672;28;20048;-62
2022/08/16 10:23:21;;;;;;;8.75;5.05;;;32.90;77.60;;;;;;5004182;28;20056;-62
2022/08/16 10:25:47;;;;;;;8.43;6.55;;;32.80;78.70;;;;;;5004661;28;20086;-62
2022/08/16 10:28:13;;;;;;;9.30;6.57;;;32.70;79.00;;;;;;5001843;28;20052;-64
2022/08/16 10:30:43;;;;;;;11.18;5.97;;;32.60;79.20;;;;;;5007477;28;20403;-63
2022/08/16 10:33:12;;;;;;;8.35;6.40;;;32.60;78.60;;;;;;5004838;28;20053;-65
2022/08/16 10:35:38;;;;;;;7.63;5.82;;;32.50;78.40;;;;;;5015283;28;20396;-61
2022/08/16 10:38:04;;;;;;;9.90;6.53;;;32.50;78.90;;;;;;5007758;28;20086;-62
2022/08/16 10:40:30;;;;;;;7.55;6.20;;;32.50;80.10;;;;;;5010699;28;20060;-62
2022/08/16 10:42:59;;;;;;;11.00;5.43;;;32.40;79.20;;;;;;5016868;28;20461;-62
2022/08/16 10:45:26;;;;;;;7.03;5.20;;;32.50;77.70;;;;;;5013385;28;20433;-63
2022/08/16 10:47:54;;;;;;;8.13;6.25;;;32.40;78.50;;;;;;5017818;28;20144;-61
2022/08/16 10:50:20;;;;;;;10.45;6.57;;;32.40;79.00;;;;;;5012768;28;20050;-61
2022/08/16 10:52:46;;;;;;;7.68;6.53;;;32.40;79.40;;;;;;5015477;28;20057;-61
2022/08/16 10:55:12;;;;;;;9.13;6.38;;;32.40;80.20;;;;;;5012287;28;20042;-64
2022/08/16 10:57:38;;;;;;;7.63;6.03;;;32.40;79.80;;;;;;5013841;28;20061;-60
2022/08/16 11:00:11;;;;;;;8.18;6.43;;;32.40;79.70;;;;;;5010192;28;20183;-61
2022/08/16 11:02:38;;;;;;;8.88;6.00;;;32.40;78.70;;;;;;5011780;28;20061;-61
2022/08/16 11:05:05;;;;;;;8.50;6.00;;;32.40;79.10;;;;;;5018491;28;20491;-61
2022/08/16 11:07:31;;;;;;;9.27;5.80;;;32.30;79.10;;;;;;5012583;28;20053;-62
2022/08/16 11:10:00;;;;;;;7.30;5.15;;;32.30;79.00;;;;;;5014722;28;20499;-62
2022/08/16 11:12:27;;;;;;;7.75;4.80;;;32.10;79.60;;;;;;5012808;28;20128;-63
2022/08/16 11:14:52;;;;;;;8.10;5.93;;;32.20;79.90;;;;;;5015922;28;20085;-62
2022/08/16 11:17:18;;;;;;;7.97;5.97;;;32.20;79.20;;;;;;5011926;28;20070;-63
2022/08/16 11:19:44;;;;;;;10.00;6.70;;;32.20;79.60;;;;;;5014441;28;20038;-61
2022/08/16 11:22:10;;;;;;;8.07;5.47;;;31.80;79.50;;;;;;4978997;28;20076;-61
2022/08/16 11:24:39;;;;;;;9.15;6.10;;;31.80;80.30;;;;;;5005181;28;20053;-61
2022/08/16 11:27:17;;;;;;;7.97;5.57;;;31.80;80.50;;;;;;5008763;28;20129;-60
2022/08/16 11:29:43;;;;;;;8.20;5.40;;;31.80;80.10;;;;;;5009132;28;20037;-61
2022/08/16 11:32:09;;;;;;;7.55;5.22;;;31.80;79.70;;;;;;5009089;28;20049;-61
2022/08/16 11:34:35;;;;;;;6.60;5.18;;;31.80;80.20;;;;;;5008698;28;20570;-61
2022/08/16 11:37:01;;;;;;;9.77;5.25;;;31.80;80.30;;;;;;5009610;28;20053;-61
2022/08/16 11:39:30;;;;;;;8.18;5.28;;;31.80;80.40;;;;;;5012072;28;20050;-62
2022/08/16 11:41:56;;;;;;;8.30;5.40;;;31.80;79.60;;;;;;5023658;28;20041;-62
2022/08/16 11:44:23;;;;;;;9.00;5.93;;;32.00;80.10;;;;;;5025627;28;20057;-62
2022/08/16 11:46:49;;;;;;;9.68;5.80;;;32.00;79.10;;;;;;5011798;28;20097;-63
2022/08/16 11:49:14;;;;;;;9.23;5.88;;;31.80;79.50;;;;;;5032700;28;20056;-62
2022/08/16 11:51:45;;;;;;;9.18;6.05;;;31.80;80.10;;;;;;5031886;28;20285;-62
2022/08/16 11:54:12;;;;;;;6.43;4.70;;;31.70;80.30;;;;;;5019000;28;20072;-62
2022/08/16 11:56:37;;;;;;;7.95;5.80;;;31.60;80.30;;;;;;5004074;28;20403;-62
2022/08/16 11:59:03;;;;;;;8.77;5.78;;;31.70;80.20;;;;;;4996714;28;20041;-62
2022/08/16 12:01:29;;;;;;;6.85;6.10;;;31.70;79.80;;;;;;5000699;28;20045;-63
2022/08/16 12:03:55;;;;;;;7.53;5.43;;;31.60;80.40;;;;;;4986979;28;20427;-62
2022/08/16 12:06:21;;;;;;;8.13;5.88;;;31.70;80.60;;;;;;4992114;28;20372;-62
2022/08/16 12:08:48;;;;;;;9.57;5.00;;;31.70;80.80;;;;;;5010598;28;20042;-61
2022/08/16 12:11:15;;;;;;;8.73;5.97;;;31.70;81.40;;;;;;5011542;28;20053;-62
2022/08/16 12:13:41;;;;;;;7.45;5.25;;;31.80;81.00;;;;;;5011650;28;20038;-62
2022/08/16 12:16:08;;;;;;;9.02;4.97;;;31.90;81.50;;;;;;5012104;28;20050;-62
2022/08/16 12:18:35;;;;;;;8.00;5.05;;;31.90;80.80;;;;;;5010537;28;20046;-62
2022/08/16 12:21:01;;;;;;;10.10;5.40;;;32.00;81.00;;;;;;5012331;28;20041;-60
2022/08/16 12:23:28;;;;;;;7.47;5.03;;;32.10;80.70;;;;;;5010359;28;21080;-63
2022/08/16 12:25:56;;;;;;;7.28;4.72;;;32.00;80.10;;;;;;5011016;28;20052;-62
2022/08/16 12:28:22;;;;;;;7.72;5.25;;;32.00;80.50;;;;;;5010291;28;20054;-61
2022/08/16 12:30:48;;;;;;;8.38;4.28;;;31.90;80.30;;;;;;5011465;28;20058;-63
2022/08/16 12:33:16;;;;;;;8.00;5.05;;;31.90;80.10;;;;;;5012060;28;20117;-61